sensor_id;sensor_type;location;lat;lon;timestamp;P1;durP1;ratioP1;P2;durP2;ratioP2
2558;SDS011;1289;53.488;10.006;2023-04-24T00:01:12;10.93;;;9.83;;
2558;SDS011;1289;53.488;10.006;2023-04-24T00:03:38;10.40;;;9.43;;
2558;SDS011;1289;53.488;10.006;2023-04-24T00:06:06;10.53;;;9.50;;
2558;SDS011;1289;53.488;10.006;2023-04-24T00:08:33;10.80;;;9.80;;
2558;SDS011;1289;53.488;10.006;2023-04-24T00:11:00;10.27;;;9.37;;
2558;SDS011;1289;53.488;10.006;2023-04-24T00:13:28;10.93;;;9.87;;
2558;SDS011;1289;53.488;10.006;2023-04-24T00:15:54;9.00;;;8.30;;
2558;SDS011;1289;53.488;10.006;2023-04-24T00:18:21;10.80;;;9.73;;
2558;SDS011;1289;53.488;10.006;2023-04-24T00:20:48;9.10;;;8.30;;
2558;SDS011;1289;53.488;10.006;2023-04-24T00:23:16;9.87;;;9.07;;
2558;SDS011;1289;53.488;10.006;2023-04-24T00:25:42;9.90;;;9.00;;
2558;SDS011;1289;53.488;10.006;2023-04-24T00:28:09;12.30;;;9.70;;
2558;SDS011;1289;53.488;10.006;2023-04-24T00:30:35;10.43;;;9.57;;
2558;SDS011;1289;53.488;10.006;2023-04-24T00:33:02;9.73;;;8.90;;
2558;SDS011;1289;53.488;10.006;2023-04-24T00:35:29;10.10;;;9.20;;
2558;SDS011;1289;53.488;10.006;2023-04-24T00:37:55;10.07;;;9.17;;
2558;SDS011;1289;53.488;10.006;2023-04-24T00:40:23;10.73;;;9.67;;
2558;SDS011;1289;53.488;10.006;2023-04-24T00:42:50;10.07;;;9.07;;
2558;SDS011;1289;53.488;10.006;2023-04-24T00:45:16;9.80;;;8.90;;
2558;SDS011;1289;53.488;10.006;2023-04-24T00:47:43;10.40;;;9.50;;
2558;SDS011;1289;53.488;10.006;2023-04-24T00:50:10;10.80;;;9.77;;
2558;SDS011;1289;53.488;10.006;2023-04-24T00:52:38;9.80;;;8.90;;
2558;SDS011;1289;53.488;10.006;2023-04-24T00:55:06;10.93;;;9.97;;
2558;SDS011;1289;53.488;10.006;2023-04-24T00:57:34;10.13;;;9.23;;
2558;SDS011;1289;53.488;10.006;2023-04-24T01:00:01;9.90;;;8.90;;
2558;SDS011;1289;53.488;10.006;2023-04-24T01:02:30;11.03;;;9.97;;
2558;SDS011;1289;53.488;10.006;2023-04-24T01:04:59;9.17;;;8.27;;
2558;SDS011;1289;53.488;10.006;2023-04-24T01:07:26;9.50;;;8.70;;
2558;SDS011;1289;53.488;10.006;2023-04-24T01:09:53;9.17;;;8.27;;
2558;SDS011;1289;53.488;10.006;2023-04-24T01:12:19;9.77;;;8.87;;
2558;SDS011;1289;53.488;10.006;2023-04-24T01:14:48;9.60;;;8.63;;
2558;SDS011;1289;53.488;10.006;2023-04-24T01:17:15;10.57;;;9.67;;
2558;SDS011;1289;53.488;10.006;2023-04-24T01:19:41;10.27;;;9.43;;
2558;SDS011;1289;53.488;10.006;2023-04-24T01:22:11;9.33;;;8.53;;
2558;SDS011;1289;53.488;10.006;2023-04-24T01:24:39;10.27;;;9.47;;
2558;SDS011;1289;53.488;10.006;2023-04-24T01:27:06;9.67;;;8.77;;
2558;SDS011;1289;53.488;10.006;2023-04-24T01:29:34;9.10;;;8.30;;
2558;SDS011;1289;53.488;10.006;2023-04-24T01:32:01;9.23;;;8.33;;
2558;SDS011;1289;53.488;10.006;2023-04-24T01:34:29;9.63;;;8.80;;
2558;SDS011;1289;53.488;10.006;2023-04-24T01:36:56;9.13;;;8.40;;
2558;SDS011;1289;53.488;10.006;2023-04-24T01:39:24;9.10;;;8.30;;
2558;SDS011;1289;53.488;10.006;2023-04-24T01:41:53;10.00;;;9.07;;
2558;SDS011;1289;53.488;10.006;2023-04-24T01:44:20;12.23;;;8.30;;
2558;SDS011;1289;53.488;10.006;2023-04-24T01:46:47;9.60;;;8.70;;
2558;SDS011;1289;53.488;10.006;2023-04-24T01:49:13;8.73;;;8.03;;
2558;SDS011;1289;53.488;10.006;2023-04-24T01:51:40;8.93;;;8.10;;
2558;SDS011;1289;53.488;10.006;2023-04-24T01:54:07;8.67;;;7.87;;
2558;SDS011;1289;53.488;10.006;2023-04-24T01:56:35;8.40;;;7.70;;
2558;SDS011;1289;53.488;10.006;2023-04-24T01:59:03;8.00;;;7.20;;
2558;SDS011;1289;53.488;10.006;2023-04-24T02:01:32;7.60;;;6.93;;
2558;SDS011;1289;53.488;10.006;2023-04-24T02:04:00;7.73;;;7.10;;
2558;SDS011;1289;53.488;10.006;2023-04-24T02:06:27;7.40;;;6.80;;
2558;SDS011;1289;53.488;10.006;2023-04-24T02:08:53;7.03;;;6.43;;
2558;SDS011;1289;53.488;10.006;2023-04-24T02:11:21;7.20;;;6.50;;
2558;SDS011;1289;53.488;10.006;2023-04-24T02:13:49;7.13;;;6.53;;
2558;SDS011;1289;53.488;10.006;2023-04-24T02:16:16;6.90;;;6.30;;
2558;SDS011;1289;53.488;10.006;2023-04-24T02:18:43;7.20;;;6.30;;
2558;SDS011;1289;53.488;10.006;2023-04-24T02:21:10;6.33;;;5.83;;
2558;SDS011;1289;53.488;10.006;2023-04-24T02:23:36;6.40;;;5.90;;
2558;SDS011;1289;53.488;10.006;2023-04-24T02:26:04;6.67;;;6.07;;
2558;SDS011;1289;53.488;10.006;2023-04-24T02:28:30;8.77;;;6.27;;
2558;SDS011;1289;53.488;10.006;2023-04-24T02:30:58;6.50;;;5.90;;
2558;SDS011;1289;53.488;10.006;2023-04-24T02:33:25;6.10;;;5.60;;
2558;SDS011;1289;53.488;10.006;2023-04-24T02:35:52;5.17;;;4.77;;
2558;SDS011;1289;53.488;10.006;2023-04-24T02:38:18;6.40;;;5.90;;
2558;SDS011;1289;53.488;10.006;2023-04-24T02:40:45;5.00;;;4.50;;
2558;SDS011;1289;53.488;10.006;2023-04-24T02:43:11;5.17;;;4.77;;
2558;SDS011;1289;53.488;10.006;2023-04-24T02:45:38;5.70;;;5.20;;
2558;SDS011;1289;53.488;10.006;2023-04-24T02:48:06;5.30;;;4.80;;
2558;SDS011;1289;53.488;10.006;2023-04-24T02:50:32;5.27;;;4.87;;
2558;SDS011;1289;53.488;10.006;2023-04-24T02:52:59;5.07;;;4.67;;
2558;SDS011;1289;53.488;10.006;2023-04-24T02:55:26;5.67;;;5.27;;
2558;SDS011;1289;53.488;10.006;2023-04-24T02:57:53;5.30;;;4.90;;
2558;SDS011;1289;53.488;10.006;2023-04-24T03:00:19;5.30;;;4.90;;
2558;SDS011;1289;53.488;10.006;2023-04-24T03:02:46;4.80;;;4.40;;
2558;SDS011;1289;53.488;10.006;2023-04-24T03:05:15;5.03;;;4.70;;
2558;SDS011;1289;53.488;10.006;2023-04-24T03:07:42;4.83;;;4.40;;
2558;SDS011;1289;53.488;10.006;2023-04-24T03:10:09;5.93;;;4.23;;
2558;SDS011;1289;53.488;10.006;2023-04-24T03:12:36;4.30;;;3.90;;
2558;SDS011;1289;53.488;10.006;2023-04-24T03:15:02;3.93;;;3.63;;
2558;SDS011;1289;53.488;10.006;2023-04-24T03:17:29;4.43;;;3.87;;
2558;SDS011;1289;53.488;10.006;2023-04-24T03:19:56;4.60;;;4.20;;
2558;SDS011;1289;53.488;10.006;2023-04-24T03:22:24;4.43;;;4.13;;
2558;SDS011;1289;53.488;10.006;2023-04-24T03:24:51;4.70;;;4.37;;
2558;SDS011;1289;53.488;10.006;2023-04-24T03:27:18;4.50;;;4.20;;
2558;SDS011;1289;53.488;10.006;2023-04-24T03:29:59;3.90;;;3.60;;
2558;SDS011;1289;53.488;10.006;2023-04-24T03:32:43;4.90;;;4.50;;
2558;SDS011;1289;53.488;10.006;2023-04-24T03:35:13;4.00;;;3.70;;
2558;SDS011;1289;53.488;10.006;2023-04-24T03:37:42;4.37;;;4.07;;
2558;SDS011;1289;53.488;10.006;2023-04-24T03:40:28;4.77;;;4.37;;
2558;SDS011;1289;53.488;10.006;2023-04-24T03:42:56;4.53;;;4.20;;
2558;SDS011;1289;53.488;10.006;2023-04-24T03:45:23;4.73;;;4.33;;
2558;SDS011;1289;53.488;10.006;2023-04-24T03:47:50;4.27;;;3.97;;
2558;SDS011;1289;53.488;10.006;2023-04-24T03:50:17;4.90;;;3.90;;
2558;SDS011;1289;53.488;10.006;2023-04-24T03:52:45;4.00;;;3.70;;
2558;SDS011;1289;53.488;10.006;2023-04-24T03:55:22;4.30;;;4.00;;
2558;SDS011;1289;53.488;10.006;2023-04-24T03:57:49;4.07;;;3.80;;
2558;SDS011;1289;53.488;10.006;2023-04-24T04:00:21;4.87;;;4.47;;
2558;SDS011;1289;53.488;10.006;2023-04-24T04:02:56;4.10;;;3.80;;
2558;SDS011;1289;53.488;10.006;2023-04-24T04:05:23;4.97;;;4.10;;
2558;SDS011;1289;53.488;10.006;2023-04-24T04:07:51;4.90;;;4.00;;
2558;SDS011;1289;53.488;10.006;2023-04-24T04:10:18;4.13;;;3.83;;
2558;SDS011;1289;53.488;10.006;2023-04-24T04:12:44;4.10;;;3.80;;
2558;SDS011;1289;53.488;10.006;2023-04-24T04:15:11;4.30;;;4.00;;
2558;SDS011;1289;53.488;10.006;2023-04-24T04:17:38;4.50;;;4.10;;
2558;SDS011;1289;53.488;10.006;2023-04-24T04:20:06;4.03;;;3.73;;
2558;SDS011;1289;53.488;10.006;2023-04-24T04:22:35;4.40;;;4.10;;
2558;SDS011;1289;53.488;10.006;2023-04-24T04:25:06;5.07;;;4.23;;
2558;SDS011;1289;53.488;10.006;2023-04-24T04:27:34;4.20;;;3.90;;
2558;SDS011;1289;53.488;10.006;2023-04-24T04:30:07;4.90;;;4.47;;
2558;SDS011;1289;53.488;10.006;2023-04-24T04:32:44;4.53;;;4.00;;
2558;SDS011;1289;53.488;10.006;2023-04-24T04:35:11;4.23;;;3.93;;
2558;SDS011;1289;53.488;10.006;2023-04-24T04:37:37;5.53;;;4.23;;
2558;SDS011;1289;53.488;10.006;2023-04-24T04:40:18;6.67;;;4.50;;
2558;SDS011;1289;53.488;10.006;2023-04-24T04:42:50;4.37;;;4.07;;
2558;SDS011;1289;53.488;10.006;2023-04-24T04:45:18;7.20;;;4.43;;
2558;SDS011;1289;53.488;10.006;2023-04-24T04:48:05;4.00;;;3.70;;
2558;SDS011;1289;53.488;10.006;2023-04-24T04:50:34;4.60;;;4.20;;
2558;SDS011;1289;53.488;10.006;2023-04-24T04:53:05;3.77;;;3.50;;
2558;SDS011;1289;53.488;10.006;2023-04-24T04:55:37;4.47;;;4.10;;
2558;SDS011;1289;53.488;10.006;2023-04-24T04:58:10;4.40;;;4.10;;
2558;SDS011;1289;53.488;10.006;2023-04-24T05:00:37;4.00;;;3.70;;
2558;SDS011;1289;53.488;10.006;2023-04-24T05:03:33;3.73;;;3.43;;
2558;SDS011;1289;53.488;10.006;2023-04-24T05:06:07;4.00;;;3.73;;
2558;SDS011;1289;53.488;10.006;2023-04-24T05:08:37;3.80;;;3.50;;
2558;SDS011;1289;53.488;10.006;2023-04-24T05:11:08;3.80;;;3.50;;
2558;SDS011;1289;53.488;10.006;2023-04-24T05:13:36;3.63;;;3.37;;
2558;SDS011;1289;53.488;10.006;2023-04-24T05:16:06;3.70;;;3.50;;
2558;SDS011;1289;53.488;10.006;2023-04-24T05:18:33;4.53;;;4.13;;
2558;SDS011;1289;53.488;10.006;2023-04-24T05:21:00;3.43;;;3.20;;
2558;SDS011;1289;53.488;10.006;2023-04-24T05:23:27;3.40;;;3.20;;
2558;SDS011;1289;53.488;10.006;2023-04-24T05:25:55;3.53;;;3.23;;
2558;SDS011;1289;53.488;10.006;2023-04-24T05:28:23;3.23;;;3.03;;
2558;SDS011;1289;53.488;10.006;2023-04-24T05:31:04;3.70;;;3.40;;
2558;SDS011;1289;53.488;10.006;2023-04-24T05:33:31;3.53;;;3.23;;
2558;SDS011;1289;53.488;10.006;2023-04-24T05:35:58;3.30;;;3.00;;
2558;SDS011;1289;53.488;10.006;2023-04-24T05:38:25;3.30;;;3.10;;
2558;SDS011;1289;53.488;10.006;2023-04-24T05:40:51;3.83;;;3.53;;
2558;SDS011;1289;53.488;10.006;2023-04-24T05:43:18;3.50;;;3.20;;
2558;SDS011;1289;53.488;10.006;2023-04-24T05:45:46;3.50;;;3.27;;
2558;SDS011;1289;53.488;10.006;2023-04-24T05:48:13;3.60;;;3.37;;
2558;SDS011;1289;53.488;10.006;2023-04-24T05:50:40;3.43;;;3.23;;
2558;SDS011;1289;53.488;10.006;2023-04-24T05:53:06;3.80;;;3.10;;
2558;SDS011;1289;53.488;10.006;2023-04-24T05:55:35;6.17;;;3.33;;
2558;SDS011;1289;53.488;10.006;2023-04-24T05:58:02;3.30;;;3.10;;
2558;SDS011;1289;53.488;10.006;2023-04-24T06:00:31;3.07;;;2.87;;
2558;SDS011;1289;53.488;10.006;2023-04-24T06:03:05;3.40;;;3.20;;
2558;SDS011;1289;53.488;10.006;2023-04-24T06:05:32;3.40;;;3.20;;
2558;SDS011;1289;53.488;10.006;2023-04-24T06:08:01;3.33;;;3.10;;
2558;SDS011;1289;53.488;10.006;2023-04-24T06:10:32;3.60;;;3.37;;
2558;SDS011;1289;53.488;10.006;2023-04-24T06:13:00;4.30;;;4.00;;
2558;SDS011;1289;53.488;10.006;2023-04-24T06:15:28;3.57;;;3.27;;
2558;SDS011;1289;53.488;10.006;2023-04-24T06:17:59;3.80;;;3.50;;
2558;SDS011;1289;53.488;10.006;2023-04-24T06:20:27;3.70;;;3.47;;
2558;SDS011;1289;53.488;10.006;2023-04-24T06:22:54;3.40;;;3.20;;
2558;SDS011;1289;53.488;10.006;2023-04-24T06:25:20;3.60;;;3.30;;
2558;SDS011;1289;53.488;10.006;2023-04-24T06:27:49;3.83;;;3.43;;
2558;SDS011;1289;53.488;10.006;2023-04-24T06:30:16;5.70;;;3.87;;
2558;SDS011;1289;53.488;10.006;2023-04-24T06:32:43;3.50;;;3.30;;
2558;SDS011;1289;53.488;10.006;2023-04-24T06:35:10;3.80;;;3.20;;
2558;SDS011;1289;53.488;10.006;2023-04-24T06:37:38;3.87;;;3.57;;
2558;SDS011;1289;53.488;10.006;2023-04-24T06:40:05;4.20;;;3.77;;
2558;SDS011;1289;53.488;10.006;2023-04-24T06:42:33;4.10;;;3.80;;
2558;SDS011;1289;53.488;10.006;2023-04-24T06:45:01;3.70;;;3.50;;
2558;SDS011;1289;53.488;10.006;2023-04-24T06:47:29;3.67;;;3.40;;
2558;SDS011;1289;53.488;10.006;2023-04-24T06:49:55;4.30;;;3.90;;
2558;SDS011;1289;53.488;10.006;2023-04-24T06:52:22;4.20;;;3.90;;
2558;SDS011;1289;53.488;10.006;2023-04-24T06:54:50;4.53;;;4.23;;
2558;SDS011;1289;53.488;10.006;2023-04-24T06:57:17;3.67;;;3.37;;
2558;SDS011;1289;53.488;10.006;2023-04-24T06:59:43;3.90;;;3.60;;
2558;SDS011;1289;53.488;10.006;2023-04-24T07:02:10;4.27;;;3.97;;
2558;SDS011;1289;53.488;10.006;2023-04-24T07:04:36;4.20;;;3.90;;
2558;SDS011;1289;53.488;10.006;2023-04-24T07:07:03;4.67;;;4.27;;
2558;SDS011;1289;53.488;10.006;2023-04-24T07:09:31;4.57;;;4.10;;
2558;SDS011;1289;53.488;10.006;2023-04-24T07:12:01;4.83;;;4.43;;
2558;SDS011;1289;53.488;10.006;2023-04-24T07:14:28;5.60;;;5.10;;
2558;SDS011;1289;53.488;10.006;2023-04-24T07:16:54;5.07;;;4.67;;
2558;SDS011;1289;53.488;10.006;2023-04-24T07:19:22;5.13;;;4.40;;
2558;SDS011;1289;53.488;10.006;2023-04-24T07:21:48;5.30;;;4.80;;
2558;SDS011;1289;53.488;10.006;2023-04-24T07:24:15;4.40;;;4.10;;
2558;SDS011;1289;53.488;10.006;2023-04-24T07:26:41;4.67;;;4.27;;
2558;SDS011;1289;53.488;10.006;2023-04-24T07:29:09;4.97;;;4.57;;
2558;SDS011;1289;53.488;10.006;2023-04-24T07:31:36;4.83;;;4.43;;
2558;SDS011;1289;53.488;10.006;2023-04-24T07:34:03;5.73;;;5.33;;
2558;SDS011;1289;53.488;10.006;2023-04-24T07:36:29;8.60;;;4.90;;
2558;SDS011;1289;53.488;10.006;2023-04-24T07:38:57;4.90;;;4.50;;
2558;SDS011;1289;53.488;10.006;2023-04-24T07:41:24;6.13;;;5.13;;
2558;SDS011;1289;53.488;10.006;2023-04-24T07:43:52;5.40;;;5.00;;
2558;SDS011;1289;53.488;10.006;2023-04-24T07:46:20;5.57;;;5.17;;
2558;SDS011;1289;53.488;10.006;2023-04-24T07:48:48;9.83;;;5.33;;
2558;SDS011;1289;53.488;10.006;2023-04-24T07:51:15;7.27;;;5.43;;
2558;SDS011;1289;53.488;10.006;2023-04-24T07:53:42;6.10;;;5.60;;
2558;SDS011;1289;53.488;10.006;2023-04-24T07:56:08;6.37;;;5.77;;
2558;SDS011;1289;53.488;10.006;2023-04-24T07:58:35;6.63;;;6.13;;
2558;SDS011;1289;53.488;10.006;2023-04-24T08:01:02;9.40;;;5.80;;
2558;SDS011;1289;53.488;10.006;2023-04-24T08:03:30;6.27;;;5.67;;
2558;SDS011;1289;53.488;10.006;2023-04-24T08:05:56;6.30;;;5.80;;
2558;SDS011;1289;53.488;10.006;2023-04-24T08:08:23;5.77;;;5.27;;
2558;SDS011;1289;53.488;10.006;2023-04-24T08:10:49;6.07;;;5.57;;
2558;SDS011;1289;53.488;10.006;2023-04-24T08:13:16;5.90;;;5.40;;
2558;SDS011;1289;53.488;10.006;2023-04-24T08:15:43;6.60;;;6.10;;
2558;SDS011;1289;53.488;10.006;2023-04-24T08:18:09;6.13;;;5.60;;
2558;SDS011;1289;53.488;10.006;2023-04-24T08:20:38;6.77;;;6.27;;
2558;SDS011;1289;53.488;10.006;2023-04-24T08:23:05;6.90;;;6.40;;
2558;SDS011;1289;53.488;10.006;2023-04-24T08:25:32;9.03;;;7.03;;
2558;SDS011;1289;53.488;10.006;2023-04-24T08:28:00;8.17;;;6.60;;
2558;SDS011;1289;53.488;10.006;2023-04-24T08:30:28;6.63;;;6.13;;
2558;SDS011;1289;53.488;10.006;2023-04-24T08:32:54;7.27;;;6.67;;
2558;SDS011;1289;53.488;10.006;2023-04-24T08:35:21;7.77;;;7.10;;
2558;SDS011;1289;53.488;10.006;2023-04-24T08:37:49;7.77;;;6.87;;
2558;SDS011;1289;53.488;10.006;2023-04-24T08:40:16;7.60;;;6.90;;
2558;SDS011;1289;53.488;10.006;2023-04-24T08:42:43;9.27;;;8.03;;
2558;SDS011;1289;53.488;10.006;2023-04-24T08:45:10;8.13;;;7.40;;
2558;SDS011;1289;53.488;10.006;2023-04-24T08:47:38;8.57;;;7.87;;
2558;SDS011;1289;53.488;10.006;2023-04-24T08:50:05;7.47;;;6.80;;
2558;SDS011;1289;53.488;10.006;2023-04-24T08:52:33;7.00;;;6.33;;
2558;SDS011;1289;53.488;10.006;2023-04-24T08:55:01;7.80;;;6.97;;
2558;SDS011;1289;53.488;10.006;2023-04-24T08:57:28;6.43;;;5.83;;
2558;SDS011;1289;53.488;10.006;2023-04-24T08:59:56;6.70;;;6.20;;
2558;SDS011;1289;53.488;10.006;2023-04-24T09:02:24;7.17;;;6.30;;
2558;SDS011;1289;53.488;10.006;2023-04-24T09:04:51;7.80;;;6.70;;
2558;SDS011;1289;53.488;10.006;2023-04-24T09:07:19;7.47;;;6.87;;
2558;SDS011;1289;53.488;10.006;2023-04-24T09:09:45;6.97;;;6.37;;
2558;SDS011;1289;53.488;10.006;2023-04-24T09:12:14;6.47;;;5.87;;
2558;SDS011;1289;53.488;10.006;2023-04-24T09:14:40;8.57;;;7.77;;
2558;SDS011;1289;53.488;10.006;2023-04-24T09:17:10;7.83;;;7.23;;
2558;SDS011;1289;53.488;10.006;2023-04-24T09:19:36;8.77;;;7.97;;
2558;SDS011;1289;53.488;10.006;2023-04-24T09:22:04;8.30;;;7.57;;
2558;SDS011;1289;53.488;10.006;2023-04-24T09:24:31;7.77;;;7.17;;
2558;SDS011;1289;53.488;10.006;2023-04-24T09:26:58;8.13;;;7.40;;
2558;SDS011;1289;53.488;10.006;2023-04-24T09:29:27;9.83;;;7.63;;
2558;SDS011;1289;53.488;10.006;2023-04-24T09:31:54;8.27;;;7.53;;
2558;SDS011;1289;53.488;10.006;2023-04-24T09:34:21;8.53;;;7.67;;
2558;SDS011;1289;53.488;10.006;2023-04-24T09:36:48;8.07;;;7.37;;
2558;SDS011;1289;53.488;10.006;2023-04-24T09:39:15;8.53;;;7.80;;
2558;SDS011;1289;53.488;10.006;2023-04-24T09:41:46;7.77;;;7.10;;
2558;SDS011;1289;53.488;10.006;2023-04-24T09:44:13;7.77;;;7.17;;
2558;SDS011;1289;53.488;10.006;2023-04-24T09:46:42;7.67;;;7.03;;
2558;SDS011;1289;53.488;10.006;2023-04-24T09:49:12;8.30;;;7.50;;
2558;SDS011;1289;53.488;10.006;2023-04-24T09:51:40;8.03;;;7.33;;
2558;SDS011;1289;53.488;10.006;2023-04-24T09:54:11;8.97;;;7.70;;
2558;SDS011;1289;53.488;10.006;2023-04-24T09:56:42;8.57;;;7.50;;
2558;SDS011;1289;53.488;10.006;2023-04-24T09:59:10;8.60;;;7.90;;
2558;SDS011;1289;53.488;10.006;2023-04-24T10:01:37;7.53;;;6.93;;
2558;SDS011;1289;53.488;10.006;2023-04-24T10:04:08;9.27;;;8.37;;
2558;SDS011;1289;53.488;10.006;2023-04-24T10:06:41;9.23;;;8.33;;
2558;SDS011;1289;53.488;10.006;2023-04-24T10:09:08;10.30;;;9.30;;
2558;SDS011;1289;53.488;10.006;2023-04-24T10:11:36;9.53;;;8.63;;
2558;SDS011;1289;53.488;10.006;2023-04-24T10:14:03;10.07;;;9.07;;
2558;SDS011;1289;53.488;10.006;2023-04-24T10:16:29;10.40;;;9.40;;
2558;SDS011;1289;53.488;10.006;2023-04-24T10:18:57;11.43;;;9.40;;
2558;SDS011;1289;53.488;10.006;2023-04-24T10:21:26;9.80;;;8.80;;
2558;SDS011;1289;53.488;10.006;2023-04-24T10:23:54;11.47;;;10.40;;
2558;SDS011;1289;53.488;10.006;2023-04-24T10:26:20;11.60;;;10.40;;
2558;SDS011;1289;53.488;10.006;2023-04-24T10:28:47;11.67;;;10.47;;
2558;SDS011;1289;53.488;10.006;2023-04-24T10:31:14;12.57;;;10.67;;
2558;SDS011;1289;53.488;10.006;2023-04-24T10:33:41;15.30;;;12.00;;
2558;SDS011;1289;53.488;10.006;2023-04-24T10:36:09;12.10;;;10.70;;
2558;SDS011;1289;53.488;10.006;2023-04-24T10:38:37;14.03;;;11.87;;
2558;SDS011;1289;53.488;10.006;2023-04-24T10:41:08;12.10;;;11.00;;
2558;SDS011;1289;53.488;10.006;2023-04-24T10:43:40;12.90;;;11.13;;
2558;SDS011;1289;53.488;10.006;2023-04-24T10:46:07;12.77;;;11.47;;
2558;SDS011;1289;53.488;10.006;2023-04-24T10:48:35;11.77;;;10.57;;
2558;SDS011;1289;53.488;10.006;2023-04-24T10:51:02;11.80;;;10.50;;
2558;SDS011;1289;53.488;10.006;2023-04-24T10:53:29;11.20;;;10.10;;
2558;SDS011;1289;53.488;10.006;2023-04-24T10:56:02;12.67;;;11.23;;
2558;SDS011;1289;53.488;10.006;2023-04-24T10:58:37;11.13;;;10.07;;
2558;SDS011;1289;53.488;10.006;2023-04-24T11:01:05;11.00;;;9.90;;
2558;SDS011;1289;53.488;10.006;2023-04-24T11:03:33;11.90;;;10.30;;
2558;SDS011;1289;53.488;10.006;2023-04-24T11:06:01;11.87;;;10.00;;
2558;SDS011;1289;53.488;10.006;2023-04-24T11:08:30;11.07;;;10.07;;
2558;SDS011;1289;53.488;10.006;2023-04-24T11:11:00;11.63;;;10.47;;
2558;SDS011;1289;53.488;10.006;2023-04-24T11:16:29;11.30;;;9.43;;
2558;SDS011;1289;53.488;10.006;2023-04-24T11:19:02;11.93;;;10.50;;
2558;SDS011;1289;53.488;10.006;2023-04-24T11:21:40;9.93;;;8.87;;
2558;SDS011;1289;53.488;10.006;2023-04-24T11:26:56;10.83;;;9.50;;
2558;SDS011;1289;53.488;10.006;2023-04-24T11:29:37;12.60;;;11.20;;
2558;SDS011;1289;53.488;10.006;2023-04-24T11:32:14;12.77;;;9.83;;
2558;SDS011;1289;53.488;10.006;2023-04-24T11:34:51;10.30;;;9.30;;
2558;SDS011;1289;53.488;10.006;2023-04-24T11:37:18;9.60;;;8.53;;
2558;SDS011;1289;53.488;10.006;2023-04-24T11:39:45;9.50;;;8.60;;
2558;SDS011;1289;53.488;10.006;2023-04-24T11:42:15;11.03;;;8.60;;
2558;SDS011;1289;53.488;10.006;2023-04-24T11:44:41;8.43;;;7.53;;
2558;SDS011;1289;53.488;10.006;2023-04-24T11:47:08;11.17;;;9.43;;
2558;SDS011;1289;53.488;10.006;2023-04-24T11:49:36;8.87;;;8.10;;
2558;SDS011;1289;53.488;10.006;2023-04-24T11:52:03;8.67;;;7.90;;
2558;SDS011;1289;53.488;10.006;2023-04-24T11:54:30;8.67;;;7.90;;
2558;SDS011;1289;53.488;10.006;2023-04-24T11:56:57;8.57;;;7.73;;
2558;SDS011;1289;53.488;10.006;2023-04-24T11:59:25;8.57;;;7.73;;
2558;SDS011;1289;53.488;10.006;2023-04-24T12:01:51;8.40;;;7.50;;
2558;SDS011;1289;53.488;10.006;2023-04-24T12:04:18;8.73;;;7.93;;
2558;SDS011;1289;53.488;10.006;2023-04-24T12:07:00;8.00;;;7.30;;
2558;SDS011;1289;53.488;10.006;2023-04-24T12:09:27;7.60;;;7.00;;
2558;SDS011;1289;53.488;10.006;2023-04-24T12:11:55;8.10;;;7.33;;
2558;SDS011;1289;53.488;10.006;2023-04-24T12:14:23;8.30;;;7.27;;
2558;SDS011;1289;53.488;10.006;2023-04-24T12:16:51;7.83;;;7.13;;
2558;SDS011;1289;53.488;10.006;2023-04-24T12:19:20;8.20;;;7.27;;
2558;SDS011;1289;53.488;10.006;2023-04-24T12:21:58;7.63;;;7.00;;
2558;SDS011;1289;53.488;10.006;2023-04-24T12:24:26;8.97;;;7.90;;
2558;SDS011;1289;53.488;10.006;2023-04-24T12:26:54;8.43;;;7.63;;
2558;SDS011;1289;53.488;10.006;2023-04-24T12:29:21;8.50;;;7.70;;
2558;SDS011;1289;53.488;10.006;2023-04-24T12:31:51;8.80;;;7.87;;
2558;SDS011;1289;53.488;10.006;2023-04-24T12:34:18;8.73;;;7.93;;
2558;SDS011;1289;53.488;10.006;2023-04-24T12:36:46;8.30;;;7.57;;
2558;SDS011;1289;53.488;10.006;2023-04-24T12:39:15;8.20;;;7.40;;
2558;SDS011;1289;53.488;10.006;2023-04-24T12:41:50;8.40;;;7.53;;
2558;SDS011;1289;53.488;10.006;2023-04-24T12:44:17;7.37;;;6.67;;
2558;SDS011;1289;53.488;10.006;2023-04-24T12:46:43;7.60;;;7.00;;
2558;SDS011;1289;53.488;10.006;2023-04-24T12:49:11;7.67;;;6.80;;
2558;SDS011;1289;53.488;10.006;2023-04-24T12:51:38;6.70;;;6.10;;
2558;SDS011;1289;53.488;10.006;2023-04-24T12:54:05;7.77;;;6.60;;
2558;SDS011;1289;53.488;10.006;2023-04-24T12:56:32;6.97;;;6.27;;
2558;SDS011;1289;53.488;10.006;2023-04-24T12:58:58;7.60;;;6.90;;
2558;SDS011;1289;53.488;10.006;2023-04-24T13:01:25;7.33;;;6.20;;
2558;SDS011;1289;53.488;10.006;2023-04-24T13:03:52;7.63;;;7.03;;
2558;SDS011;1289;53.488;10.006;2023-04-24T13:06:20;7.70;;;7.00;;
2558;SDS011;1289;53.488;10.006;2023-04-24T13:08:47;6.33;;;5.83;;
2558;SDS011;1289;53.488;10.006;2023-04-24T13:11:13;7.90;;;7.10;;
2558;SDS011;1289;53.488;10.006;2023-04-24T13:13:40;7.97;;;7.37;;
2558;SDS011;1289;53.488;10.006;2023-04-24T13:16:07;7.87;;;7.10;;
2558;SDS011;1289;53.488;10.006;2023-04-24T13:18:34;8.40;;;7.53;;
2558;SDS011;1289;53.488;10.006;2023-04-24T13:21:01;9.30;;;6.50;;
2558;SDS011;1289;53.488;10.006;2023-04-24T13:23:29;7.80;;;7.00;;
2558;SDS011;1289;53.488;10.006;2023-04-24T13:25:55;8.00;;;7.30;;
2558;SDS011;1289;53.488;10.006;2023-04-24T13:28:23;7.00;;;6.40;;
2558;SDS011;1289;53.488;10.006;2023-04-24T13:30:50;6.83;;;5.90;;
2558;SDS011;1289;53.488;10.006;2023-04-24T13:33:17;8.50;;;6.67;;
2558;SDS011;1289;53.488;10.006;2023-04-24T13:35:43;7.87;;;7.17;;
2558;SDS011;1289;53.488;10.006;2023-04-24T13:38:10;7.70;;;6.90;;
2558;SDS011;1289;53.488;10.006;2023-04-24T13:40:38;7.83;;;7.13;;
2558;SDS011;1289;53.488;10.006;2023-04-24T13:43:04;7.23;;;6.63;;
2558;SDS011;1289;53.488;10.006;2023-04-24T13:45:31;7.90;;;7.10;;
2558;SDS011;1289;53.488;10.006;2023-04-24T13:47:58;7.40;;;6.80;;
2558;SDS011;1289;53.488;10.006;2023-04-24T13:50:24;7.27;;;6.67;;
2558;SDS011;1289;53.488;10.006;2023-04-24T13:52:51;6.73;;;6.23;;
2558;SDS011;1289;53.488;10.006;2023-04-24T13:55:18;6.93;;;6.43;;
2558;SDS011;1289;53.488;10.006;2023-04-24T13:57:46;7.27;;;6.67;;
2558;SDS011;1289;53.488;10.006;2023-04-24T14:00:13;7.33;;;6.73;;
2558;SDS011;1289;53.488;10.006;2023-04-24T14:02:40;7.43;;;6.83;;
2558;SDS011;1289;53.488;10.006;2023-04-24T14:05:07;6.87;;;6.27;;
2558;SDS011;1289;53.488;10.006;2023-04-24T14:07:35;7.80;;;7.10;;
2558;SDS011;1289;53.488;10.006;2023-04-24T14:10:02;8.00;;;7.30;;
2558;SDS011;1289;53.488;10.006;2023-04-24T14:12:29;8.03;;;7.33;;
2558;SDS011;1289;53.488;10.006;2023-04-24T14:14:57;7.80;;;7.20;;
2558;SDS011;1289;53.488;10.006;2023-04-24T14:17:24;7.13;;;6.43;;
2558;SDS011;1289;53.488;10.006;2023-04-24T14:19:50;7.87;;;7.17;;
2558;SDS011;1289;53.488;10.006;2023-04-24T14:22:17;6.60;;;6.00;;
2558;SDS011;1289;53.488;10.006;2023-04-24T14:24:43;6.60;;;6.10;;
2558;SDS011;1289;53.488;10.006;2023-04-24T14:27:10;7.90;;;6.03;;
2558;SDS011;1289;53.488;10.006;2023-04-24T14:29:36;5.33;;;4.83;;
2558;SDS011;1289;53.488;10.006;2023-04-24T14:32:04;4.90;;;4.50;;
2558;SDS011;1289;53.488;10.006;2023-04-24T14:34:31;5.87;;;5.30;;
2558;SDS011;1289;53.488;10.006;2023-04-24T14:36:57;5.73;;;5.33;;
2558;SDS011;1289;53.488;10.006;2023-04-24T14:39:24;6.40;;;5.90;;
2558;SDS011;1289;53.488;10.006;2023-04-24T14:41:51;5.60;;;5.20;;
2558;SDS011;1289;53.488;10.006;2023-04-24T14:44:17;5.70;;;5.17;;
2558;SDS011;1289;53.488;10.006;2023-04-24T14:46:44;5.33;;;4.93;;
2558;SDS011;1289;53.488;10.006;2023-04-24T14:49:12;6.97;;;6.37;;
2558;SDS011;1289;53.488;10.006;2023-04-24T14:51:39;6.63;;;6.03;;
2558;SDS011;1289;53.488;10.006;2023-04-24T14:54:06;7.40;;;6.70;;
2558;SDS011;1289;53.488;10.006;2023-04-24T14:56:33;9.90;;;7.20;;
2558;SDS011;1289;53.488;10.006;2023-04-24T14:58:59;6.70;;;6.17;;
2558;SDS011;1289;53.488;10.006;2023-04-24T15:01:26;7.53;;;6.90;;
2558;SDS011;1289;53.488;10.006;2023-04-24T15:03:53;7.70;;;7.10;;
2558;SDS011;1289;53.488;10.006;2023-04-24T15:06:21;7.47;;;6.87;;
2558;SDS011;1289;53.488;10.006;2023-04-24T15:08:47;7.40;;;6.80;;